Terminal Aerodrome Forecast
Issued by NWS Albany, NY

Home | Current Version | Previous Version | Text Only | Print | Product List | Glossary On
Versions: 1 2 3 4 5 6 7 8 9 10 11 12 13 14 15 16 17
000
FTUS41 KALY 290535
TAFPOU
TAF
KPOU 290535Z 2906/3006 00000KT 6SM BR SCT250
     FM290900 00000KT 4SM BR SCT005
      TEMPO 2909/2911 2SM BR BKN005
     FM291300 VRB02KT P6SM SCT250
     FM291700 23005KT P6SM FEW060 SCT250
     FM300100 00000KT P6SM SKC=

USA.gov is the U.S. government's official web portal to all federal, state and local government web resources and services.